createdAt,value
2019-05-30T00:01:23.473Z,5.67
2019-05-30T00:03:53.962Z,4.73
2019-05-30T00:06:23.272Z,5.17
2019-05-30T00:08:52.522Z,3.50
2019-05-30T00:11:21.860Z,3.67
2019-05-30T00:13:51.029Z,5.03
2019-05-30T00:16:20.232Z,4.27
2019-05-30T00:18:49.388Z,3.63
2019-05-30T00:21:18.625Z,4.20
2019-05-30T00:23:47.780Z,3.60
2019-05-30T00:26:16.954Z,3.07
2019-05-30T00:28:46.296Z,2.93
2019-05-30T00:31:15.556Z,3.83
2019-05-30T00:33:44.728Z,3.20
2019-05-30T00:36:14.021Z,3.40
2019-05-30T00:38:43.204Z,4.40
2019-05-30T00:41:12.484Z,5.03
2019-05-30T00:43:41.717Z,6.60
2019-05-30T00:46:11.005Z,3.67
2019-05-30T00:48:40.221Z,3.93
2019-05-30T00:51:09.549Z,3.33
2019-05-30T00:53:38.803Z,3.90
2019-05-30T00:56:08.015Z,3.60
2019-05-30T00:58:37.272Z,3.50
2019-05-30T01:01:07.151Z,3.03
2019-05-30T01:03:36.523Z,9.03
2019-05-30T01:06:07.148Z,4.20
2019-05-30T01:08:36.607Z,3.27
2019-05-30T01:11:07.389Z,4.10
2019-05-30T01:13:36.859Z,4.70
2019-05-30T01:16:07.241Z,4.20
2019-05-30T01:18:36.565Z,3.67
2019-05-30T01:21:05.871Z,3.23
2019-05-30T01:23:36.695Z,3.00
2019-05-30T01:26:05.942Z,5.83
2019-05-30T01:28:35.305Z,3.83
2019-05-30T01:31:09.598Z,3.97
2019-05-30T01:33:35.626Z,7.23
2019-05-30T01:36:05.822Z,5.30
2019-05-30T01:38:35.164Z,3.90
2019-05-30T01:41:04.453Z,4.40
2019-05-30T01:43:33.747Z,3.13
2019-05-30T01:46:04.128Z,3.87
2019-05-30T01:48:33.613Z,4.13
2019-05-30T01:51:02.913Z,3.40
2019-05-30T01:53:32.199Z,4.80
2019-05-30T01:56:02.601Z,3.50
2019-05-30T01:58:32.763Z,7.67
2019-05-30T02:01:17.114Z,5.70
2019-05-30T02:03:33.112Z,5.03
2019-05-30T02:06:03.288Z,6.73
2019-05-30T02:08:32.842Z,2.90
2019-05-30T02:11:03.291Z,6.97
2019-05-30T02:13:32.868Z,3.80
2019-05-30T02:16:02.096Z,4.50
2019-05-30T02:18:31.454Z,4.13
2019-05-30T02:21:02.059Z,3.60
2019-05-30T02:23:31.301Z,6.60
2019-05-30T02:26:00.484Z,3.80
2019-05-30T02:28:29.684Z,4.00
2019-05-30T02:31:00.431Z,3.60
2019-05-30T02:33:29.940Z,3.80
2019-05-30T02:36:01.046Z,4.00
2019-05-30T02:38:30.383Z,4.23
2019-05-30T02:41:01.306Z,6.53
2019-05-30T02:43:30.620Z,4.60
2019-05-30T02:46:00.942Z,5.17
2019-05-30T02:48:30.476Z,4.20
2019-05-30T02:51:01.030Z,5.63
2019-05-30T02:53:31.427Z,6.60
2019-05-30T02:56:03.653Z,7.87
2019-05-30T02:58:33.058Z,4.67
2019-05-30T03:01:04.036Z,4.17
2019-05-30T03:03:34.220Z,5.17
2019-05-30T03:06:03.981Z,4.00
2019-05-30T03:08:34.855Z,9.00
2019-05-30T03:11:05.067Z,5.87
2019-05-30T03:13:34.890Z,4.00
2019-05-30T03:16:05.036Z,9.33
2019-05-30T03:18:35.205Z,3.83
2019-05-30T03:21:05.666Z,4.23
2019-05-30T03:23:35.343Z,3.87
2019-05-30T03:26:05.499Z,3.33
2019-05-30T03:28:35.650Z,4.60
2019-05-30T03:31:13.933Z,8.00
2019-05-30T03:33:42.076Z,3.70
2019-05-30T03:36:15.536Z,5.67
2019-05-30T03:38:39.195Z,3.87
2019-05-30T03:41:11.369Z,4.00
2019-05-30T03:43:39.522Z,4.10
2019-05-30T03:46:14.877Z,7.73
2019-05-30T03:48:47.141Z,6.10
2019-05-30T03:51:18.934Z,4.30
2019-05-30T03:53:56.444Z,3.60
2019-05-30T03:56:34.108Z,4.30
2019-05-30T03:59:10.861Z,4.90
2019-05-30T04:01:57.286Z,4.63
2019-05-30T04:04:29.478Z,3.43
2019-05-30T04:07:03.875Z,4.00
2019-05-30T04:09:36.081Z,6.43
2019-05-30T04:12:16.491Z,5.17
2019-05-30T04:14:48.597Z,4.50
2019-05-30T04:17:19.833Z,4.97
2019-05-30T04:19:48.988Z,5.03
2019-05-30T04:22:19.635Z,3.63
2019-05-30T04:24:49.033Z,3.57
2019-05-30T04:27:18.668Z,6.20
2019-05-30T04:29:48.135Z,7.00
2019-05-30T04:32:18.677Z,4.07
2019-05-30T04:34:48.166Z,4.20
2019-05-30T04:37:18.937Z,3.97
2019-05-30T04:39:48.252Z,5.13
2019-05-30T04:42:18.866Z,5.00
2019-05-30T04:44:49.663Z,3.30
2019-05-30T04:47:20.597Z,3.90
2019-05-30T04:49:49.953Z,4.20
2019-05-30T04:52:22.662Z,4.50
2019-05-30T04:54:50.275Z,4.10
2019-05-30T04:57:25.191Z,4.67
2019-05-30T04:59:50.503Z,5.80
2019-05-30T05:02:21.086Z,4.23
2019-05-30T05:04:50.739Z,3.87
2019-05-30T05:07:20.014Z,4.87
2019-05-30T05:09:49.259Z,5.10
2019-05-30T05:12:18.471Z,4.10
2019-05-30T05:14:47.749Z,4.30
2019-05-30T05:17:17.043Z,8.00
2019-05-30T05:19:46.504Z,4.40
2019-05-30T05:22:16.913Z,7.77
2019-05-30T05:24:46.345Z,7.13
2019-05-30T05:27:15.605Z,4.23
2019-05-30T05:29:44.941Z,3.77
2019-05-30T05:32:14.230Z,4.50
2019-05-30T05:34:43.503Z,3.40
2019-05-30T05:37:12.707Z,4.20
2019-05-30T05:39:45.367Z,3.10
2019-05-30T05:42:16.069Z,3.20
2019-05-30T05:44:46.327Z,4.93
2019-05-30T05:47:21.101Z,3.83
2019-05-30T05:49:50.462Z,5.43
2019-05-30T05:52:20.715Z,3.60
2019-05-30T05:54:50.210Z,4.80
2019-05-30T05:57:20.588Z,3.20
2019-05-30T05:59:53.414Z,4.87
2019-05-30T06:02:23.272Z,3.23
2019-05-30T06:04:52.643Z,3.90
2019-05-30T06:07:22.412Z,3.43
2019-05-30T06:09:51.912Z,3.10
2019-05-30T06:12:21.724Z,3.00
2019-05-30T06:14:51.197Z,5.00
2019-05-30T06:17:21.169Z,3.40
2019-05-30T06:19:50.504Z,4.50
2019-05-30T06:22:19.706Z,3.60
2019-05-30T06:24:49.009Z,3.03
2019-05-30T06:27:19.796Z,3.57
2019-05-30T06:29:49.686Z,2.90
2019-05-30T06:32:20.909Z,3.57
2019-05-30T06:34:57.812Z,4.37
2019-05-30T06:37:27.359Z,3.73
2019-05-30T06:40:00.913Z,7.03
2019-05-30T06:42:31.545Z,4.90
2019-05-30T06:45:07.835Z,4.73
2019-05-30T06:47:55.223Z,3.10
2019-05-30T06:53:46.329Z,3.87
2019-05-30T06:56:44.807Z,2.97
2019-05-30T06:59:21.421Z,2.63
2019-05-30T07:01:52.345Z,3.30
2019-05-30T07:04:27.376Z,2.83
2019-05-30T07:06:58.513Z,2.50
2019-05-30T07:09:30.998Z,3.10
2019-05-30T07:12:01.227Z,2.50
2019-05-30T07:14:33.414Z,2.60
2019-05-30T07:17:05.343Z,2.87
2019-05-30T07:19:37.650Z,3.80
2019-05-30T07:22:05.989Z,2.63
2019-05-30T07:24:35.277Z,3.53
2019-05-30T07:27:23.769Z,4.60
2019-05-30T07:29:55.518Z,3.70
2019-05-30T07:32:25.875Z,4.37
2019-05-30T07:35:05.935Z,2.43
2019-05-30T07:37:34.415Z,4.60
2019-05-30T07:40:04.475Z,2.10
2019-05-30T07:42:34.795Z,2.50
2019-05-30T07:45:11.003Z,3.33
2019-05-30T07:47:50.580Z,2.10
2019-05-30T07:50:21.567Z,2.50
2019-05-30T07:52:51.311Z,2.50
2019-05-30T07:55:21.587Z,2.83
2019-05-30T07:57:50.952Z,2.30
2019-05-30T08:00:22.058Z,2.10
2019-05-30T08:02:51.644Z,2.10
2019-05-30T08:05:24.667Z,2.00
2019-05-30T08:07:52.700Z,1.90
2019-05-30T08:10:22.371Z,2.50
2019-05-30T08:12:52.046Z,4.40
2019-05-30T08:15:21.652Z,4.23
2019-05-30T08:17:50.975Z,2.93
2019-05-30T08:20:20.272Z,1.87
2019-05-30T08:22:49.804Z,2.23
2019-05-30T08:25:18.948Z,3.20
2019-05-30T08:27:48.306Z,2.30
2019-05-30T08:30:19.592Z,5.20
2019-05-30T08:32:48.845Z,2.83
2019-05-30T08:35:18.506Z,1.50
2019-05-30T08:37:47.752Z,2.30
2019-05-30T08:40:17.273Z,2.73
2019-05-30T08:42:46.484Z,1.80
2019-05-30T08:45:16.000Z,4.90
2019-05-30T08:47:45.233Z,2.70
2019-05-30T08:50:14.784Z,4.97
2019-05-30T08:52:44.029Z,3.00
2019-05-30T08:55:13.612Z,4.07
2019-05-30T08:57:42.889Z,2.47
2019-05-30T09:00:12.977Z,2.00
2019-05-30T09:02:42.915Z,3.10
2019-05-30T09:05:12.512Z,3.10
2019-05-30T09:07:42.974Z,1.70
2019-05-30T09:10:12.785Z,3.73
2019-05-30T09:12:43.684Z,2.37
2019-05-30T09:15:13.533Z,2.60
2019-05-30T09:17:44.582Z,2.07
2019-05-30T09:20:14.445Z,2.40
2019-05-30T09:22:49.509Z,4.07
2019-05-30T09:25:19.411Z,3.83
2019-05-30T09:27:48.640Z,2.13
2019-05-30T09:30:21.939Z,1.93
2019-05-30T09:32:51.321Z,2.03
2019-05-30T09:35:23.782Z,2.30
2019-05-30T09:37:55.439Z,3.30
2019-05-30T09:40:26.455Z,3.63
2019-05-30T09:42:58.315Z,2.70
2019-05-30T09:45:28.051Z,1.83
2019-05-30T09:47:57.291Z,2.07
2019-05-30T09:50:26.716Z,1.80
2019-05-30T09:52:56.087Z,2.20
2019-05-30T09:55:25.769Z,2.13
2019-05-30T09:57:55.104Z,1.60
2019-05-30T10:00:26.206Z,1.93
2019-05-30T10:02:55.618Z,2.00
2019-05-30T10:05:25.447Z,1.80
2019-05-30T10:07:54.701Z,2.20
2019-05-30T10:10:24.902Z,1.73
2019-05-30T10:12:56.548Z,7.20
2019-05-30T10:15:25.982Z,1.53
2019-05-30T10:17:56.878Z,2.90
2019-05-30T10:20:26.494Z,2.00
2019-05-30T10:22:57.250Z,3.60
2019-05-30T10:25:26.730Z,1.83
2019-05-30T10:27:57.978Z,1.73
2019-05-30T10:30:27.408Z,2.03
2019-05-30T10:32:57.138Z,3.40
2019-05-30T10:35:29.636Z,3.13
2019-05-30T10:37:57.876Z,1.80
2019-05-30T10:40:31.982Z,2.00
2019-05-30T10:42:58.596Z,1.90
2019-05-30T10:45:30.766Z,1.93
2019-05-30T10:48:56.809Z,2.97
2019-05-30T10:51:29.685Z,2.90
2019-05-30T10:53:59.074Z,2.50
2019-05-30T10:56:28.392Z,2.00
2019-05-30T10:58:57.655Z,2.00
2019-05-30T11:01:27.170Z,1.90
2019-05-30T11:03:57.032Z,2.93
2019-05-30T11:07:11.705Z,2.13
2019-05-30T11:09:44.872Z,2.13
2019-05-30T11:12:14.558Z,1.67
2019-05-30T11:14:44.392Z,3.30
2019-05-30T11:17:13.901Z,1.97
2019-05-30T11:19:43.345Z,1.87
2019-05-30T11:22:13.022Z,2.07
2019-05-30T11:24:42.913Z,2.00
2019-05-30T11:27:12.779Z,3.03
2019-05-30T11:30:12.947Z,3.37
2019-05-30T11:32:44.565Z,3.00
2019-05-30T11:36:10.079Z,3.80
2019-05-30T11:38:40.646Z,4.60
2019-05-30T11:41:10.305Z,4.40
2019-05-30T11:43:39.805Z,3.93
2019-05-30T11:46:09.365Z,5.40
2019-05-30T11:48:38.742Z,5.17
2019-05-30T11:51:10.159Z,6.60
2019-05-30T11:53:39.608Z,4.63
2019-05-30T11:56:08.887Z,3.53
2019-05-30T11:58:39.166Z,3.50
2019-05-30T12:01:08.488Z,4.50
2019-05-30T12:03:37.788Z,5.10
2019-05-30T12:06:07.071Z,3.93
2019-05-30T12:08:36.619Z,4.10
2019-05-30T12:11:06.304Z,4.43
2019-05-30T12:13:35.634Z,3.93
2019-05-30T12:16:04.904Z,4.50
2019-05-30T12:18:34.238Z,4.00
2019-05-30T12:21:03.392Z,4.47
2019-05-30T12:23:32.781Z,4.80
2019-05-30T12:26:02.348Z,4.53
2019-05-30T12:28:31.840Z,3.93
2019-05-30T12:31:04.545Z,3.40
2019-05-30T12:33:31.911Z,3.43
2019-05-30T12:36:01.092Z,2.90
2019-05-30T12:38:30.494Z,2.20
2019-05-30T12:41:00.897Z,2.40
2019-05-30T12:43:30.475Z,2.83
2019-05-30T12:46:01.163Z,2.40
2019-05-30T12:48:30.564Z,3.43
2019-05-30T12:51:01.378Z,2.00
2019-05-30T12:53:30.847Z,3.83
2019-05-30T12:56:00.559Z,2.30
2019-05-30T12:58:32.061Z,1.90
2019-05-30T13:01:01.269Z,2.00
2019-05-30T13:03:30.921Z,1.70
2019-05-30T13:06:01.126Z,1.97
2019-05-30T13:08:30.588Z,1.80
2019-05-30T13:10:59.881Z,2.63
2019-05-30T13:13:29.256Z,2.30
2019-05-30T13:15:58.776Z,1.80
2019-05-30T13:18:28.188Z,2.10
2019-05-30T13:20:57.962Z,1.80
2019-05-30T13:23:36.219Z,2.10
2019-05-30T13:26:05.911Z,1.87
2019-05-30T13:28:35.538Z,2.13
2019-05-30T13:31:04.898Z,1.77
2019-05-30T13:33:37.989Z,1.90
2019-05-30T13:36:05.549Z,2.43
2019-05-30T13:38:35.035Z,1.80
2019-05-30T13:41:10.149Z,1.90
2019-05-30T13:43:39.640Z,1.87
2019-05-30T13:46:09.063Z,2.80
2019-05-30T13:48:38.514Z,1.87
2019-05-30T13:51:14.057Z,2.10
2019-05-30T13:53:43.686Z,2.30
2019-05-30T13:56:13.218Z,2.13
2019-05-30T13:58:42.497Z,2.17
2019-05-30T14:01:13.964Z,1.50
2019-05-30T14:03:43.077Z,2.00
2019-05-30T14:06:16.325Z,1.87
2019-05-30T14:08:45.695Z,1.63
2019-05-30T14:11:15.070Z,2.10
2019-05-30T14:13:50.940Z,2.13
2019-05-30T14:16:22.554Z,1.90
2019-05-30T14:18:51.926Z,2.50
2019-05-30T14:21:21.378Z,2.50
2019-05-30T14:23:51.295Z,2.50
2019-05-30T14:26:21.123Z,1.80
2019-05-30T14:28:51.339Z,1.97
2019-05-30T14:31:21.030Z,2.07
2019-05-30T14:33:50.860Z,1.80
2019-05-30T14:36:20.294Z,1.40
2019-05-30T14:38:58.170Z,3.87
2019-05-30T14:41:20.796Z,2.13
2019-05-30T14:43:51.138Z,2.00
2019-05-30T14:46:20.818Z,1.90
2019-05-30T14:48:50.220Z,1.67
2019-05-30T14:51:19.520Z,1.70
2019-05-30T14:53:48.770Z,1.60
2019-05-30T14:56:17.984Z,2.30
2019-05-30T14:58:47.386Z,1.90
2019-05-30T15:01:17.527Z,1.90
2019-05-30T15:03:46.879Z,2.33
2019-05-30T15:06:17.807Z,1.70
2019-05-30T15:08:47.288Z,1.60
2019-05-30T15:11:16.413Z,1.90
2019-05-30T15:13:45.892Z,1.63
2019-05-30T15:16:15.277Z,1.90
2019-05-30T15:18:44.523Z,1.60
2019-05-30T15:21:14.559Z,1.90
2019-05-30T15:23:43.883Z,1.70
2019-05-30T15:26:14.189Z,2.43
2019-05-30T15:28:43.746Z,1.80
2019-05-30T15:31:14.912Z,1.70
2019-05-30T15:33:44.009Z,1.70
2019-05-30T15:36:13.401Z,1.80
2019-05-30T15:38:42.734Z,1.93
2019-05-30T15:41:13.081Z,2.20
2019-05-30T15:43:42.413Z,2.63
2019-05-30T15:46:11.829Z,2.00
2019-05-30T15:48:41.227Z,2.10
2019-05-30T15:51:10.525Z,1.90
2019-05-30T15:53:39.725Z,2.00
2019-05-30T15:56:09.085Z,3.00
2019-05-30T15:58:38.344Z,2.47
2019-05-30T16:01:08.086Z,2.37
2019-05-30T16:03:37.261Z,2.50
2019-05-30T16:06:06.576Z,1.70
2019-05-30T16:08:35.822Z,1.90
2019-05-30T16:11:04.975Z,1.80
2019-05-30T16:13:34.221Z,2.00
2019-05-30T16:16:03.588Z,1.90
2019-05-30T16:18:40.785Z,1.87
2019-05-30T16:21:13.027Z,1.80
2019-05-30T16:23:41.589Z,2.00
2019-05-30T16:26:11.349Z,2.33
2019-05-30T16:28:48.563Z,2.23
2019-05-30T16:31:20.309Z,2.10
2019-05-30T16:33:50.173Z,1.80
2019-05-30T16:36:20.297Z,1.90
2019-05-30T16:38:49.860Z,2.03
2019-05-30T16:41:20.425Z,2.30
2019-05-30T16:43:50.285Z,2.13
2019-05-30T16:46:20.532Z,3.00
2019-05-30T16:48:50.097Z,3.03
2019-05-30T16:51:21.188Z,2.30
2019-05-30T16:53:51.215Z,2.63
2019-05-30T16:56:23.626Z,2.50
2019-05-30T16:58:53.091Z,3.50
2019-05-30T17:01:23.992Z,2.30
2019-05-30T17:03:55.408Z,2.67
2019-05-30T17:06:26.037Z,2.40
2019-05-30T17:09:01.722Z,2.90
2019-05-30T17:11:31.170Z,2.07
2019-05-30T17:14:00.489Z,2.00
2019-05-30T17:16:29.868Z,2.47
2019-05-30T17:18:59.338Z,2.03
2019-05-30T17:21:29.150Z,2.50
2019-05-30T17:23:58.316Z,2.60
2019-05-30T17:26:27.664Z,2.80
2019-05-30T17:28:58.445Z,2.50
2019-05-30T17:31:28.646Z,3.80
2019-05-30T17:33:58.070Z,2.50
2019-05-30T17:36:29.738Z,2.30
2019-05-30T17:39:01.943Z,2.20
2019-05-30T17:41:33.920Z,2.70
2019-05-30T17:44:03.242Z,2.43
2019-05-30T17:46:34.787Z,2.67
2019-05-30T17:49:03.961Z,2.90
2019-05-30T17:51:34.391Z,3.17
2019-05-30T17:54:05.895Z,2.40
2019-05-30T17:56:36.704Z,2.97
2019-05-30T17:59:09.452Z,2.90
2019-05-30T18:01:41.722Z,2.73
2019-05-30T18:04:10.980Z,2.40
2019-05-30T18:06:40.457Z,2.93
2019-05-30T18:09:09.934Z,3.70
2019-05-30T18:11:39.611Z,3.83
2019-05-30T18:14:09.045Z,4.80
2019-05-30T18:16:38.327Z,3.10
2019-05-30T18:19:07.481Z,3.30
2019-05-30T18:21:36.742Z,4.33
2019-05-30T18:24:06.178Z,2.40
2019-05-30T18:26:35.724Z,3.57
2019-05-30T18:29:06.395Z,18.37
2019-05-30T18:31:35.619Z,8.17
2019-05-30T18:34:04.996Z,32.57
2019-05-30T18:36:34.261Z,27.60
2019-05-30T18:39:03.595Z,18.40
2019-05-30T18:41:32.933Z,19.10
2019-05-30T18:44:02.323Z,15.27
2019-05-30T18:46:31.841Z,14.50
2019-05-30T18:49:01.069Z,11.87
2019-05-30T18:51:30.417Z,8.43
2019-05-30T18:54:00.231Z,7.77
2019-05-30T18:56:30.654Z,6.90
2019-05-30T18:58:59.985Z,7.20
2019-05-30T19:01:29.646Z,6.50
2019-05-30T19:03:59.282Z,20.93
2019-05-30T19:06:29.805Z,9.80
2019-05-30T19:09:05.385Z,12.67
2019-05-30T19:11:36.584Z,11.83
2019-05-30T19:14:05.953Z,12.03
2019-05-30T19:16:36.709Z,12.83
2019-05-30T19:19:06.435Z,13.03
2019-05-30T19:21:36.196Z,9.77
2019-05-30T19:24:07.633Z,11.23
2019-05-30T19:26:37.025Z,9.67
2019-05-30T19:29:06.232Z,10.93
2019-05-30T19:31:36.840Z,9.80
2019-05-30T19:34:06.940Z,9.17
2019-05-30T19:36:38.352Z,14.57
2019-05-30T19:39:08.180Z,20.40
2019-05-30T19:41:53.788Z,14.30
2019-05-30T19:44:10.236Z,12.13
2019-05-30T19:46:39.685Z,11.30
2019-05-30T19:49:09.076Z,11.13
2019-05-30T19:51:51.579Z,10.43
2019-05-30T19:54:21.124Z,9.83
2019-05-30T19:56:50.440Z,7.93
2019-05-30T19:59:19.664Z,6.63
2019-05-30T20:01:48.994Z,7.10
2019-05-30T20:04:18.216Z,6.80
2019-05-30T20:06:47.576Z,7.30
2019-05-30T20:09:17.471Z,8.17
2019-05-30T20:12:02.092Z,7.77
2019-05-30T20:14:17.975Z,7.07
2019-05-30T20:16:47.165Z,7.70
2019-05-30T20:19:16.388Z,7.20
2019-05-30T20:21:45.604Z,8.33
2019-05-30T20:24:14.941Z,9.33
2019-05-30T20:26:44.525Z,9.03
2019-05-30T20:29:13.856Z,10.27
2019-05-30T20:31:43.638Z,9.13
2019-05-30T20:34:13.299Z,8.67
2019-05-30T20:36:48.541Z,8.97
2019-05-30T20:39:17.832Z,8.40
2019-05-30T20:41:47.266Z,10.53
2019-05-30T20:44:16.769Z,14.70
2019-05-30T20:46:47.259Z,10.97
2019-05-30T20:49:16.874Z,9.97
2019-05-30T20:51:47.480Z,10.50
2019-05-30T20:54:16.908Z,10.20
2019-05-30T20:56:50.083Z,11.13
2019-05-30T20:59:17.430Z,11.10
2019-05-30T21:01:46.610Z,10.90
2019-05-30T21:04:15.853Z,10.77
2019-05-30T21:06:45.656Z,10.63
2019-05-30T21:09:28.346Z,11.00
2019-05-30T21:11:46.610Z,10.83
2019-05-30T21:14:17.907Z,10.50
2019-05-30T21:16:48.894Z,13.73
2019-05-30T21:19:18.199Z,10.83
2019-05-30T21:21:47.567Z,10.53
2019-05-30T21:24:16.792Z,10.70
2019-05-30T21:26:46.987Z,11.20
2019-05-30T21:29:16.657Z,11.03
2019-05-30T21:31:47.458Z,11.07
2019-05-30T21:34:16.939Z,10.80
2019-05-30T21:36:46.348Z,10.43
2019-05-30T21:39:15.673Z,9.83
2019-05-30T21:41:46.288Z,9.93
2019-05-30T21:44:15.697Z,9.60
2019-05-30T21:46:46.671Z,10.23
2019-05-30T21:49:16.227Z,9.67
2019-05-30T21:51:45.629Z,10.03
2019-05-30T21:54:14.956Z,11.43
2019-05-30T21:56:44.427Z,9.87
2019-05-30T21:59:13.865Z,9.23
2019-05-30T22:01:44.754Z,10.03
2019-05-30T22:04:14.209Z,9.60
2019-05-30T22:06:43.423Z,9.23
2019-05-30T22:09:14.570Z,10.00
2019-05-30T22:11:43.912Z,8.30
2019-05-30T22:14:13.376Z,8.80
2019-05-30T22:16:43.858Z,8.97
2019-05-30T22:19:13.412Z,8.97
2019-05-30T22:21:42.611Z,8.40
2019-05-30T22:24:13.129Z,9.57
2019-05-30T22:26:42.553Z,7.53
2019-05-30T22:29:11.970Z,8.13
2019-05-30T22:31:42.462Z,8.13
2019-05-30T22:34:11.966Z,10.13
2019-05-30T22:36:42.618Z,9.00
2019-05-30T22:39:15.396Z,8.07
2019-05-30T22:41:45.787Z,8.17
2019-05-30T22:44:15.204Z,7.43
2019-05-30T22:46:44.536Z,23.30
2019-05-30T22:49:13.895Z,10.17
2019-05-30T22:51:43.251Z,8.67
2019-05-30T22:54:12.472Z,8.20
2019-05-30T22:56:41.809Z,8.87
2019-05-30T22:59:11.283Z,8.07
2019-05-30T23:01:40.543Z,8.90
2019-05-30T23:04:09.926Z,7.97
2019-05-30T23:06:39.404Z,9.60
2019-05-30T23:09:09.751Z,7.40
2019-05-30T23:11:39.201Z,6.53
2019-05-30T23:14:08.491Z,6.83
2019-05-30T23:16:37.691Z,7.00
2019-05-30T23:19:12.901Z,7.23
2019-05-30T23:21:42.261Z,6.97
2019-05-30T23:24:11.636Z,7.60
2019-05-30T23:26:41.057Z,8.10
2019-05-30T23:29:10.504Z,6.63
2019-05-30T23:31:39.966Z,7.20
2019-05-30T23:34:09.231Z,8.23
2019-05-30T23:36:38.455Z,7.67
2019-05-30T23:39:08.025Z,7.40
2019-05-30T23:41:37.345Z,9.20
2019-05-30T23:44:11.448Z,7.10
2019-05-30T23:46:37.853Z,6.90
2019-05-30T23:49:07.197Z,9.07
2019-05-30T23:51:36.685Z,6.73
2019-05-30T23:54:05.985Z,6.43
2019-05-30T23:56:35.652Z,6.30
2019-05-30T23:59:05.324Z,6.80
